TimeEST,TemperatureF,Dew PointF,Humidity,Sea Level PressureIn,VisibilityMPH,Wind Direction,Wind SpeedMPH,Gust SpeedMPH,PrecipitationIn,Events,Conditions,WindDirDegrees,DateUTC
12:53 AM,45.0,39.0,80,30.04,10.0,NW,12.7,21.9,N/A,,Overcast,310,2013-11-07 05:53:00
1:27 AM,44.6,37.4,76,30.03,10.0,NW,9.2,-,N/A,,Scattered Clouds,310,2013-11-07 06:27:00
1:40 AM,42.8,37.4,81,30.03,10.0,NW,11.5,-,N/A,,Mostly Cloudy,310,2013-11-07 06:40:00
1:53 AM,43.0,37.9,82,30.05,10.0,NW,9.2,-,N/A,,Mostly Cloudy,310,2013-11-07 06:53:00
2:23 AM,42.8,37.4,81,30.04,10.0,NW,11.5,-,N/A,,Scattered Clouds,310,2013-11-07 07:23:00
2:53 AM,43.0,37.0,80,30.07,10.0,WNW,6.9,-,N/A,,Mostly Cloudy,290,2013-11-07 07:53:00
3:20 AM,42.8,37.4,81,30.06,10.0,WNW,9.2,-,N/A,,Overcast,300,2013-11-07 08:20:00
3:53 AM,42.1,37.0,82,30.06,10.0,WNW,6.9,-,N/A,,Overcast,290,2013-11-07 08:53:00
4:53 AM,42.1,37.0,82,30.08,10.0,West,8.1,-,N/A,,Overcast,280,2013-11-07 09:53:00
5:53 AM,42.1,37.0,82,30.09,10.0,WNW,11.5,-,0.00,,Overcast,290,2013-11-07 10:53:00
6:19 AM,41.0,35.6,81,30.10,6.0,WNW,12.7,-,0.01,Rain,Rain,300,2013-11-07 11:19:00
6:53 AM,41.0,37.0,86,30.12,10.0,West,9.2,-,0.02,,Overcast,280,2013-11-07 11:53:00
7:53 AM,37.9,30.0,73,30.15,10.0,WNW,17.3,24.2,N/A,,Mostly Cloudy,300,2013-11-07 12:53:00
8:00 AM,37.4,28.4,70,30.15,10.0,WNW,18.4,24.2,N/A,,Mostly Cloudy,300,2013-11-07 13:00:00
8:53 AM,39.0,26.1,60,30.17,10.0,NW,15.0,-,N/A,,Clear,310,2013-11-07 13:53:00
9:53 AM,41.0,28.0,60,30.18,10.0,WNW,18.4,25.3,N/A,,Clear,290,2013-11-07 14:53:00
10:53 AM,42.1,28.0,58,30.18,10.0,WNW,15.0,27.6,N/A,,Mostly Cloudy,290,2013-11-07 15:53:00
11:53 AM,43.0,28.0,56,30.18,10.0,WNW,17.3,-,N/A,,Mostly Cloudy,290,2013-11-07 16:53:00
12:53 PM,44.1,27.0,51,30.16,10.0,WNW,16.1,-,N/A,,Overcast,290,2013-11-07 17:53:00
1:53 PM,46.0,28.0,50,30.14,10.0,WNW,17.3,25.3,N/A,,Mostly Cloudy,290,2013-11-07 18:53:00
2:53 PM,46.0,28.0,50,30.14,10.0,West,16.1,-,N/A,,Overcast,270,2013-11-07 19:53:00
3:53 PM,45.0,28.0,52,30.13,10.0,West,16.1,24.2,N/A,,Overcast,260,2013-11-07 20:53:00
4:53 PM,44.1,28.0,53,30.13,10.0,West,9.2,-,N/A,,Mostly Cloudy,260,2013-11-07 21:53:00
5:53 PM,44.1,27.0,51,30.14,10.0,West,13.8,-,N/A,,Mostly Cloudy,270,2013-11-07 22:53:00
6:53 PM,44.1,27.0,51,30.16,10.0,West,13.8,-,N/A,,Overcast,280,2013-11-07 23:53:00
7:53 PM,43.0,28.0,56,30.15,10.0,West,10.4,-,N/A,,Overcast,270,2013-11-08 00:53:00
8:53 PM,42.1,28.9,60,30.14,10.0,West,10.4,-,N/A,,Overcast,280,2013-11-08 01:53:00
9:53 PM,39.9,33.1,77,30.15,10.0,West,11.5,-,0.00,Rain,Light Rain,280,2013-11-08 02:53:00
10:53 PM,39.9,32.0,73,30.15,10.0,West,11.5,-,0.00,,Overcast,270,2013-11-08 03:53:00
11:53 PM,37.9,30.9,76,30.16,10.0,WNW,9.2,-,N/A,,Partly Cloudy,290,2013-11-08 04:53:00